createdAt,value
2022-11-20T00:01:23.043Z,100680.94
2022-11-20T00:03:51.698Z,100675.66
2022-11-20T00:06:20.647Z,100668.69
2022-11-20T00:08:48.203Z,100677.28
2022-11-20T00:11:22.877Z,100679.00
2022-11-20T00:13:52.036Z,100678.13
2022-11-20T00:16:22.278Z,100684.97
2022-11-20T00:18:49.837Z,100673.81
2022-11-20T00:21:19.729Z,100680.59
2022-11-20T00:23:50.940Z,100678.00
2022-11-20T00:26:19.929Z,100688.84
2022-11-20T00:28:55.653Z,100689.66
2022-11-20T00:31:22.802Z,100688.81
2022-11-20T00:33:49.949Z,100692.34
2022-11-20T00:36:21.857Z,100685.50
2022-11-20T00:38:52.928Z,100683.88
2022-11-20T00:41:19.846Z,100683.94
2022-11-20T00:43:46.584Z,100687.34
2022-11-20T00:46:18.901Z,100693.34
2022-11-20T00:48:46.519Z,100685.41
2022-11-20T00:51:18.394Z,100686.00
2022-11-20T00:53:45.998Z,100692.53
2022-11-20T00:56:15.691Z,100686.50
2022-11-20T00:58:44.629Z,100683.13
2022-11-20T01:01:13.006Z,100688.22
2022-11-20T01:03:42.954Z,100691.69
2022-11-20T01:06:12.706Z,100701.22
2022-11-20T01:08:40.361Z,100710.72
2022-11-20T01:11:11.013Z,100710.34
2022-11-20T01:13:38.488Z,100711.72
2022-11-20T01:16:06.257Z,100722.50
2022-11-20T01:18:33.108Z,100722.50
2022-11-20T01:21:05.790Z,100718.38
2022-11-20T01:23:34.509Z,100729.59
2022-11-20T01:26:03.638Z,100729.66
2022-11-20T01:28:31.073Z,100733.31
2022-11-20T01:30:58.149Z,100729.19
2022-11-20T01:33:25.041Z,100737.63
2022-11-20T01:35:51.872Z,100735.91
2022-11-20T01:38:18.844Z,100736.81
2022-11-20T01:40:45.542Z,100730.13
2022-11-20T01:43:22.755Z,100730.13
2022-11-20T01:46:07.851Z,100748.22
2022-11-20T01:48:34.589Z,100749.22
2022-11-20T01:51:03.331Z,100752.44
2022-11-20T01:53:36.284Z,100744.56
2022-11-20T01:56:06.730Z,100757.56
2022-11-20T01:58:36.818Z,100757.13
2022-11-20T02:01:05.350Z,100759.50
2022-11-20T02:03:32.638Z,100761.28
2022-11-20T02:06:36.209Z,100773.22
2022-11-20T02:09:03.346Z,100778.06
2022-11-20T02:11:32.316Z,100770.59
2022-11-20T02:14:00.311Z,100770.91
2022-11-20T02:16:30.235Z,100770.84
2022-11-20T02:19:00.343Z,100769.16
2022-11-20T02:21:52.799Z,100766.69
2022-11-20T02:24:21.152Z,100766.84
2022-11-20T02:27:12.533Z,100773.53
2022-11-20T02:29:46.149Z,100771.84
2022-11-20T02:32:33.154Z,100762.56
2022-11-20T02:35:10.208Z,100755.72
2022-11-20T02:37:41.758Z,100754.69
2022-11-20T02:40:09.129Z,100757.97
2022-11-20T02:42:36.738Z,100753.59
2022-11-20T02:45:05.177Z,100762.19
2022-11-20T02:47:33.333Z,100759.63
2022-11-20T02:50:00.156Z,100758.03
2022-11-20T02:52:27.184Z,100763.03
2022-11-20T02:54:54.203Z,100754.56
2022-11-20T02:57:20.889Z,100758.91
2022-11-20T02:59:47.651Z,100753.84
2022-11-20T03:02:14.443Z,100757.38
2022-11-20T03:04:41.165Z,100750.56
2022-11-20T03:07:09.029Z,100746.72
2022-11-20T03:09:35.892Z,100751.53
2022-11-20T03:12:02.711Z,100745.38
2022-11-20T03:14:29.520Z,100744.47
2022-11-20T03:16:57.100Z,100747.72
2022-11-20T03:19:23.936Z,100749.44
2022-11-20T03:21:50.863Z,100744.31
2022-11-20T03:24:17.701Z,100739.22
2022-11-20T03:26:44.480Z,100745.25
2022-11-20T03:29:11.223Z,100754.44
2022-11-20T03:31:43.335Z,100748.16
2022-11-20T03:34:12.042Z,100752.91
2022-11-20T03:36:40.395Z,100757.22
2022-11-20T03:39:07.371Z,100755.81
2022-11-20T03:41:38.399Z,100762.66
2022-11-20T03:44:07.341Z,100756.75
2022-11-20T03:46:34.514Z,100746.44
2022-11-20T03:49:01.391Z,100747.25
2022-11-20T03:51:31.196Z,100750.81
2022-11-20T03:54:00.354Z,100747.97
2022-11-20T03:56:30.253Z,100747.97
2022-11-20T03:58:57.326Z,100753.22
2022-11-20T04:01:27.108Z,100750.59
2022-11-20T04:03:55.734Z,100746.22
2022-11-20T04:06:27.827Z,100756.22
2022-11-20T04:09:01.846Z,100757.72
2022-11-20T04:11:31.150Z,100754.28
2022-11-20T04:14:02.493Z,100757.00
2022-11-20T04:16:37.079Z,100753.75
2022-11-20T04:19:06.270Z,100742.88
2022-11-20T04:21:33.683Z,100744.69
2022-11-20T04:24:00.476Z,100747.13
2022-11-20T04:26:29.076Z,100748.31
2022-11-20T04:28:56.202Z,100749.75
2022-11-20T04:31:28.917Z,100762.13
2022-11-20T04:33:55.989Z,100762.19
2022-11-20T04:36:25.048Z,100766.91
2022-11-20T04:38:56.703Z,100778.09
2022-11-20T04:41:27.839Z,100766.91
2022-11-20T04:44:00.865Z,100768.56
2022-11-20T04:46:29.192Z,100778.84
2022-11-20T04:48:56.334Z,100761.88
2022-11-20T04:51:23.315Z,100778.47
2022-11-20T04:53:50.240Z,100782.63
2022-11-20T04:56:17.313Z,100779.63
2022-11-20T04:58:44.044Z,100777.31
2022-11-20T05:01:15.629Z,100788.84
2022-11-20T05:03:43.719Z,100791.22
2022-11-20T05:06:13.189Z,100797.34
2022-11-20T05:08:40.713Z,100804.53
2022-11-20T05:11:33.593Z,100811.53
2022-11-20T05:14:01.025Z,100816.66
2022-11-20T05:16:27.976Z,100814.94
2022-11-20T05:18:55.624Z,100822.03
2022-11-20T05:21:22.782Z,100814.34
2022-11-20T05:23:49.729Z,100821.19
2022-11-20T05:26:19.285Z,100835.06
2022-11-20T05:28:46.666Z,100838.81
2022-11-20T05:31:23.430Z,100841.19
2022-11-20T05:33:53.454Z,100849.09
2022-11-20T05:36:27.468Z,100840.00
2022-11-20T05:38:59.760Z,100840.94
2022-11-20T05:41:28.211Z,100851.63
2022-11-20T05:43:54.898Z,100849.44
2022-11-20T05:46:27.877Z,100850.75
2022-11-20T05:48:56.313Z,100845.69
2022-11-20T05:51:23.022Z,100850.09
2022-11-20T05:53:49.853Z,100854.63
2022-11-20T05:56:19.355Z,100858.03
2022-11-20T05:58:47.019Z,100854.16
2022-11-20T06:01:25.361Z,100856.84
2022-11-20T06:03:53.769Z,100855.94
2022-11-20T06:06:27.053Z,100862.03
2022-11-20T06:08:54.014Z,100865.94
2022-11-20T06:11:21.083Z,100861.72
2022-11-20T06:13:48.179Z,100862.56
2022-11-20T06:16:17.235Z,100864.16
2022-11-20T06:18:44.205Z,100854.56
2022-11-20T06:21:13.820Z,100862.66
2022-11-20T06:23:41.674Z,100863.56
2022-11-20T06:26:13.933Z,100866.91
2022-11-20T06:28:44.076Z,100877.28
2022-11-20T06:31:14.920Z,100870.03
2022-11-20T06:33:42.855Z,100871.44
2022-11-20T06:36:12.830Z,100876.03
2022-11-20T06:38:40.446Z,100870.00
2022-11-20T06:41:08.752Z,100880.84
2022-11-20T06:43:35.501Z,100878.44
2022-11-20T06:46:02.302Z,100888.72
2022-11-20T06:48:29.744Z,100893.25
2022-11-20T06:50:57.416Z,100894.81
2022-11-20T06:53:25.079Z,100903.38
2022-11-20T06:55:52.967Z,100907.41
2022-11-20T06:58:20.050Z,100912.41
2022-11-20T07:00:46.855Z,100910.63
2022-11-20T07:03:14.322Z,100912.03
2022-11-20T07:05:41.673Z,100925.84
2022-11-20T07:08:09.018Z,100926.97
2022-11-20T07:10:36.144Z,100931.44
2022-11-20T07:13:02.984Z,100940.59
2022-11-20T07:15:30.073Z,100947.63
2022-11-20T07:17:59.415Z,100940.66
2022-11-20T07:20:26.208Z,100952.91
2022-11-20T07:22:57.237Z,100952.16
2022-11-20T07:25:24.231Z,100962.53
2022-11-20T07:27:51.074Z,100966.22
2022-11-20T07:30:18.670Z,100975.84
2022-11-20T07:32:51.658Z,100975.38
2022-11-20T07:35:18.760Z,100986.13
2022-11-20T07:37:46.710Z,100981.38
2022-11-20T07:40:14.492Z,100984.13
2022-11-20T07:42:54.890Z,100975.69
2022-11-20T07:45:24.279Z,100983.56
2022-11-20T07:47:51.737Z,100990.63
2022-11-20T07:50:19.840Z,100979.88
2022-11-20T07:52:46.622Z,100984.31
2022-11-20T07:55:14.087Z,100975.16
2022-11-20T07:57:41.132Z,100987.38
2022-11-20T08:00:10.222Z,100981.59
2022-11-20T08:02:41.096Z,100988.59
2022-11-20T08:05:09.693Z,100997.28
2022-11-20T08:07:38.777Z,100993.94
2022-11-20T08:10:06.433Z,100990.59
2022-11-20T08:12:51.888Z,100994.97
2022-11-20T08:15:18.874Z,100992.47
2022-11-20T08:18:02.028Z,100992.56
2022-11-20T08:20:32.925Z,101000.38
2022-11-20T08:23:04.484Z,100995.41
2022-11-20T08:25:31.880Z,101002.50
2022-11-20T08:28:10.318Z,101001.84
2022-11-20T08:30:39.041Z,101004.69
2022-11-20T08:33:10.486Z,101004.06
2022-11-20T08:35:38.888Z,101000.13
2022-11-20T08:38:06.787Z,101005.56
2022-11-20T08:40:34.263Z,101003.16
2022-11-20T08:43:01.904Z,101008.63
2022-11-20T08:45:33.671Z,101006.28
2022-11-20T08:48:08.524Z,101008.25
2022-11-20T08:50:35.295Z,101018.63
2022-11-20T08:53:06.047Z,101016.00
2022-11-20T08:55:33.381Z,101017.25
2022-11-20T08:58:05.202Z,101024.09
2022-11-20T09:00:33.462Z,101025.63
2022-11-20T09:03:02.072Z,101027.28
2022-11-20T09:05:29.131Z,101038.22
2022-11-20T09:07:59.698Z,101038.09
2022-11-20T09:10:30.068Z,101037.25
2022-11-20T09:12:57.337Z,101043.22
2022-11-20T09:15:25.791Z,101039.28
2022-11-20T09:17:56.981Z,101047.50
2022-11-20T09:20:24.195Z,101044.94
2022-11-20T09:22:51.060Z,101044.03
2022-11-20T09:25:18.168Z,101052.53
2022-11-20T09:27:47.042Z,101055.38
2022-11-20T09:30:17.054Z,101056.53
2022-11-20T09:32:46.915Z,101050.94
2022-11-20T09:35:13.837Z,101057.97
2022-11-20T09:37:40.627Z,101058.75
2022-11-20T09:40:17.935Z,101061.38
2022-11-20T09:43:16.204Z,101070.22
2022-11-20T09:45:57.867Z,101068.56
2022-11-20T09:48:35.360Z,101067.06
2022-11-20T09:51:08.119Z,101068.09
2022-11-20T09:54:06.423Z,101063.81
2022-11-20T09:56:40.156Z,101067.03
2022-11-20T09:59:14.385Z,101063.81
2022-11-20T10:01:43.779Z,101062.03
2022-11-20T10:04:20.826Z,101061.81
2022-11-20T10:07:31.534Z,101061.19
2022-11-20T10:09:57.381Z,101056.16
2022-11-20T10:12:24.056Z,101049.19
2022-11-20T10:14:59.825Z,101056.06
2022-11-20T10:17:51.042Z,101063.25
2022-11-20T10:20:29.586Z,101063.47
2022-11-20T10:23:08.429Z,101055.47
2022-11-20T10:25:51.613Z,101046.06
2022-11-20T10:28:30.196Z,101046.06
2022-11-20T10:31:26.336Z,101047.91
2022-11-20T10:34:11.731Z,101038.00
2022-11-20T10:36:44.837Z,101042.09
2022-11-20T10:39:26.903Z,101028.34
2022-11-20T10:41:54.790Z,101032.00
2022-11-20T10:44:45.725Z,101026.88
2022-11-20T10:47:22.197Z,101022.81
2022-11-20T10:49:54.149Z,101026.47
2022-11-20T10:52:48.501Z,101023.28
2022-11-20T10:55:36.473Z,101014.59
2022-11-20T10:58:21.394Z,101013.09
2022-11-20T11:00:48.275Z,101006.25
2022-11-20T11:03:29.769Z,100997.66
2022-11-20T11:06:07.657Z,100992.38
2022-11-20T11:08:39.351Z,100990.63
2022-11-20T11:11:35.108Z,100995.94
2022-11-20T11:14:08.663Z,100991.75
2022-11-20T11:16:35.950Z,100989.19
2022-11-20T11:19:14.549Z,100988.38
2022-11-20T11:21:54.947Z,100989.16
2022-11-20T11:24:42.314Z,100980.66
2022-11-20T11:27:18.772Z,100978.03
2022-11-20T11:29:47.099Z,100984.81
2022-11-20T11:32:15.552Z,100983.91
2022-11-20T11:34:42.571Z,100984.81
2022-11-20T11:37:18.526Z,100985.69
2022-11-20T11:39:49.392Z,100981.16
2022-11-20T11:42:22.079Z,100978.56
2022-11-20T11:45:07.820Z,100973.53
2022-11-20T11:47:43.845Z,100980.53
2022-11-20T11:50:10.517Z,100972.88
2022-11-20T11:52:40.116Z,100973.88
2022-11-20T11:55:15.473Z,100973.03
2022-11-20T11:57:55.631Z,100971.41
2022-11-20T12:00:23.969Z,100977.44
2022-11-20T12:03:04.926Z,100975.75
2022-11-20T12:05:50.670Z,100974.88
2022-11-20T12:08:50.201Z,100968.97
2022-11-20T12:11:46.481Z,100965.53
2022-11-20T12:14:20.812Z,100971.59
2022-11-20T12:16:47.859Z,100972.44
2022-11-20T12:19:15.384Z,100969.84
2022-11-20T12:21:49.355Z,100977.56
2022-11-20T12:24:34.831Z,100975.00
2022-11-20T12:27:32.493Z,100979.25
2022-11-20T12:30:05.956Z,100982.72
2022-11-20T12:32:59.931Z,100975.84
2022-11-20T12:35:26.653Z,100973.28
2022-11-20T12:37:59.253Z,100977.56
2022-11-20T12:40:43.734Z,100976.69
2022-11-20T12:43:28.905Z,100973.25
2022-11-20T12:46:03.206Z,100970.75
2022-11-20T12:48:52.806Z,100977.63
2022-11-20T12:51:48.776Z,100964.75
2022-11-20T12:54:18.191Z,100961.25
2022-11-20T12:57:00.799Z,100960.41
2022-11-20T12:59:54.814Z,100965.53
2022-11-20T13:02:58.981Z,100956.03
2022-11-20T13:05:50.182Z,100958.56
2022-11-20T13:08:29.445Z,100951.72
2022-11-20T13:11:04.343Z,100949.22
2022-11-20T13:14:08.422Z,100941.38
2022-11-20T13:16:42.651Z,100943.00
2022-11-20T13:19:15.833Z,100941.31
2022-11-20T13:21:47.326Z,100942.28
2022-11-20T13:24:20.477Z,100945.53
2022-11-20T13:26:48.020Z,100946.38
2022-11-20T13:29:19.690Z,100944.69
2022-11-20T13:31:48.398Z,100942.19
2022-11-20T13:34:27.140Z,100943.94
2022-11-20T13:36:56.692Z,100942.22
2022-11-20T13:39:32.045Z,100943.19
2022-11-20T13:42:26.259Z,100941.47
2022-11-20T13:44:56.545Z,100935.47
2022-11-20T13:47:30.065Z,100947.59
2022-11-20T13:50:00.256Z,100940.75
2022-11-20T13:52:46.851Z,100940.75
2022-11-20T13:55:22.606Z,100939.88
2022-11-20T13:58:15.621Z,100944.97
2022-11-20T14:00:56.372Z,100941.53
2022-11-20T14:03:44.071Z,100949.22
2022-11-20T14:06:28.676Z,100949.97
2022-11-20T14:08:56.526Z,100949.06
2022-11-20T14:11:29.064Z,100949.09
2022-11-20T14:14:06.316Z,100945.66
2022-11-20T14:16:35.808Z,100946.50
2022-11-20T14:19:20.971Z,100949.00
2022-11-20T14:21:50.976Z,100946.44
2022-11-20T14:24:25.779Z,100947.28
2022-11-20T14:26:53.601Z,100937.00
2022-11-20T14:29:26.377Z,100940.44
2022-11-20T14:31:54.930Z,100941.25
2022-11-20T14:34:25.678Z,100942.06
2022-11-20T14:37:00.064Z,100935.13
2022-11-20T14:39:32.820Z,100940.19
2022-11-20T14:41:59.676Z,100938.38
2022-11-20T14:44:33.964Z,100934.91
2022-11-20T14:47:03.656Z,100946.09
2022-11-20T14:49:31.937Z,100945.16
2022-11-20T14:52:04.175Z,100950.25
2022-11-20T14:54:31.700Z,100952.78
2022-11-20T14:57:01.785Z,100953.56
2022-11-20T14:59:35.438Z,100956.19
2022-11-20T15:02:06.362Z,100957.03
2022-11-20T15:04:33.018Z,100954.41
2022-11-20T15:07:01.053Z,100956.13
2022-11-20T15:09:27.992Z,100951.81
2022-11-20T15:12:00.280Z,100956.09
2022-11-20T15:14:29.929Z,100949.22
2022-11-20T15:16:57.347Z,100960.41
2022-11-20T15:19:26.176Z,100952.69
2022-11-20T15:21:53.307Z,100963.81
2022-11-20T15:24:20.814Z,100962.91
2022-11-20T15:26:48.813Z,100966.31
2022-11-20T15:29:20.295Z,100966.34
2022-11-20T15:31:47.090Z,100970.63
2022-11-20T15:34:17.500Z,100971.44
2022-11-20T15:36:45.324Z,100974.00
2022-11-20T15:39:12.654Z,100970.53
2022-11-20T15:41:40.383Z,100967.03
2022-11-20T15:44:07.452Z,100975.56
2022-11-20T15:46:39.534Z,100971.28
2022-11-20T15:49:07.254Z,100981.53
2022-11-20T15:51:37.105Z,100974.63
2022-11-20T15:54:13.299Z,100981.44
2022-11-20T15:56:40.207Z,100984.78
2022-11-20T15:59:06.991Z,100984.72
2022-11-20T16:01:33.845Z,100991.53
2022-11-20T16:04:02.327Z,100985.44
2022-11-20T16:06:29.152Z,100981.03
2022-11-20T16:08:55.989Z,100979.06
2022-11-20T16:11:22.791Z,100985.03
2022-11-20T16:14:08.941Z,100989.22
2022-11-20T16:16:37.856Z,100998.66
2022-11-20T16:19:04.854Z,101002.88
2022-11-20T16:21:32.676Z,101008.03
2022-11-20T16:24:04.981Z,100999.19
2022-11-20T16:26:32.961Z,101012.16
2022-11-20T16:29:01.281Z,101004.09
2022-11-20T16:31:28.123Z,101010.03
2022-11-20T16:33:57.729Z,101015.25
2022-11-20T16:36:29.549Z,101000.69
2022-11-20T16:38:58.563Z,100999.69
2022-11-20T16:41:26.833Z,100994.47
2022-11-20T16:43:58.837Z,100997.78
2022-11-20T16:46:28.541Z,100992.72
2022-11-20T16:48:58.025Z,100995.31
2022-11-20T16:51:26.340Z,100997.03
2022-11-20T16:53:55.152Z,100999.34
2022-11-20T16:56:26.912Z,101006.84
2022-11-20T16:58:56.275Z,101007.69
2022-11-20T17:01:24.741Z,101013.63
2022-11-20T17:04:09.810Z,101019.66
2022-11-20T17:06:40.748Z,101011.97
2022-11-20T17:09:11.020Z,101010.25
2022-11-20T17:11:38.459Z,101005.97
2022-11-20T17:14:07.541Z,101003.41
2022-11-20T17:16:36.428Z,101008.44
2022-11-20T17:19:05.239Z,101011.75
2022-11-20T17:21:35.953Z,101017.41
2022-11-20T17:24:12.606Z,101013.56
2022-11-20T17:26:42.073Z,101007.50
2022-11-20T17:29:21.572Z,100999.56
2022-11-20T17:31:48.977Z,101003.78
2022-11-20T17:34:17.012Z,101011.66
2022-11-20T17:36:47.447Z,101010.84
2022-11-20T17:39:15.711Z,101010.78
2022-11-20T17:41:42.672Z,101007.84
2022-11-20T17:44:10.708Z,101014.56
2022-11-20T17:46:37.756Z,101025.16
2022-11-20T17:49:05.226Z,101024.22
2022-11-20T17:51:35.252Z,101034.13
2022-11-20T17:54:05.769Z,101036.28
2022-11-20T17:56:52.380Z,101038.91
2022-11-20T17:59:20.125Z,101037.25
2022-11-20T18:01:47.740Z,101045.84
2022-11-20T18:04:15.121Z,101045.91
2022-11-20T18:06:42.539Z,101050.97
2022-11-20T18:09:10.171Z,101049.44
2022-11-20T18:11:41.739Z,101055.13
2022-11-20T18:14:32.654Z,101068.81
2022-11-20T18:17:23.493Z,101066.94
2022-11-20T18:20:14.166Z,101058.56
2022-11-20T18:22:38.238Z,101060.69
2022-11-20T18:25:05.405Z,101073.28
2022-11-20T18:27:32.665Z,101077.31
2022-11-20T18:29:59.575Z,101089.22
2022-11-20T18:32:27.472Z,101090.06
2022-11-20T18:34:54.587Z,101086.09
2022-11-20T18:37:24.801Z,101089.66
2022-11-20T18:39:51.995Z,101082.06
2022-11-20T18:42:37.726Z,101085.47
2022-11-20T18:45:05.587Z,101084.75
2022-11-20T18:47:37.567Z,101076.84
2022-11-20T18:50:07.967Z,101071.72
2022-11-20T18:52:42.079Z,101067.31
2022-11-20T18:55:10.072Z,101080.06
2022-11-20T18:57:41.098Z,101086.28
2022-11-20T19:00:10.131Z,101080.44
2022-11-20T19:02:42.103Z,101092.09
2022-11-20T19:05:11.640Z,101097.00
2022-11-20T19:07:38.802Z,101088.31
2022-11-20T19:10:06.889Z,101097.88
2022-11-20T19:12:33.932Z,101084.28
2022-11-20T19:15:01.122Z,101088.09
2022-11-20T19:17:27.888Z,101076.41
2022-11-20T19:19:55.294Z,101075.47
2022-11-20T19:22:22.478Z,101085.00
2022-11-20T19:24:49.582Z,101075.69
2022-11-20T19:27:16.702Z,101075.28
2022-11-20T19:29:43.814Z,101069.81
2022-11-20T19:32:10.722Z,101069.56
2022-11-20T19:34:37.881Z,101067.09
2022-11-20T19:37:05.491Z,101071.44
2022-11-20T19:42:00.092Z,101067.03
2022-11-20T19:44:27.075Z,101066.81
2022-11-20T19:46:54.009Z,101055.38
2022-11-20T19:49:21.708Z,101057.91
2022-11-20T19:51:51.105Z,101059.75
2022-11-20T19:54:18.477Z,101047.94
2022-11-20T19:56:46.696Z,101046.44
2022-11-20T19:59:14.238Z,101052.97
2022-11-20T20:01:41.180Z,101052.81
2022-11-20T20:04:08.221Z,101038.94
2022-11-20T20:06:41.812Z,101040.53
2022-11-20T20:09:12.502Z,101049.13
2022-11-20T20:11:40.615Z,101049.06
2022-11-20T20:14:11.407Z,101043.34
2022-11-20T20:16:40.429Z,101030.66
2022-11-20T20:19:07.715Z,101029.44
2022-11-20T20:21:36.587Z,101022.84
2022-11-20T20:24:04.563Z,101032.19
2022-11-20T20:26:32.682Z,101032.19
2022-11-20T20:29:04.545Z,101033.09
2022-11-20T20:31:33.969Z,101016.13
2022-11-20T20:34:01.756Z,101018.97
2022-11-20T20:36:29.039Z,101016.72
2022-11-20T20:38:59.721Z,101007.00
2022-11-20T20:41:26.780Z,101009.69
2022-11-20T20:44:12.809Z,101008.56
2022-11-20T20:46:44.156Z,101012.47
2022-11-20T20:49:14.361Z,101014.75
2022-11-20T20:51:41.411Z,101022.84
2022-11-20T20:54:08.615Z,101016.06
2022-11-20T20:56:35.938Z,101023.91
2022-11-20T20:59:04.161Z,101026.00
2022-11-20T21:01:31.713Z,101025.88
2022-11-20T21:03:58.819Z,101026.19
2022-11-20T21:06:26.897Z,101026.53
2022-11-20T21:08:56.529Z,101029.25
2022-11-20T21:11:25.085Z,101019.91
2022-11-20T21:13:53.142Z,101019.59
2022-11-20T21:16:22.766Z,101014.94
2022-11-20T21:18:56.689Z,101019.31
2022-11-20T21:21:48.217Z,100996.75
2022-11-20T21:24:18.620Z,101010.28
2022-11-20T21:26:45.846Z,101010.00
2022-11-20T21:29:13.032Z,101021.66
2022-11-20T21:31:40.245Z,100995.56
2022-11-20T21:34:11.140Z,101012.88
2022-11-20T21:36:38.509Z,101005.47
2022-11-20T21:39:05.694Z,101033.84
2022-11-20T21:41:33.527Z,101034.03
2022-11-20T21:46:51.358Z,101046.03
2022-11-20T21:49:18.370Z,101046.72
2022-11-20T21:51:45.696Z,101052.19
2022-11-20T21:54:13.045Z,101058.53
2022-11-20T21:56:40.114Z,101059.84
2022-11-20T21:59:07.011Z,101060.63
2022-11-20T22:01:36.682Z,101060.00
2022-11-20T22:04:04.509Z,101064.34
2022-11-20T22:06:34.749Z,101056.63
2022-11-20T22:09:02.971Z,101065.44
2022-11-20T22:11:30.636Z,101066.59
2022-11-20T22:14:16.561Z,101068.34
2022-11-20T22:16:43.969Z,101070.00
2022-11-20T22:19:10.850Z,101073.06
2022-11-20T22:21:40.200Z,101075.25
2022-11-20T22:24:07.237Z,101072.22
2022-11-20T22:26:39.880Z,101069.66
2022-11-20T22:29:10.950Z,101075.44
2022-11-20T22:31:37.877Z,101085.47
2022-11-20T22:34:06.107Z,101081.75
2022-11-20T22:36:37.893Z,101086.97
2022-11-20T22:39:06.129Z,101083.31
2022-11-20T22:41:33.849Z,101076.66
2022-11-20T22:44:03.342Z,101082.47
2022-11-20T22:46:33.754Z,101061.53
2022-11-20T22:49:02.721Z,101070.16
2022-11-20T22:51:32.874Z,101074.16
2022-11-20T22:54:00.348Z,101079.72
2022-11-20T22:56:28.589Z,101067.44
2022-11-20T22:58:56.249Z,101068.38
2022-11-20T23:01:31.588Z,101078.31
2022-11-20T23:04:01.643Z,101083.41
2022-11-20T23:06:29.741Z,101094.19
2022-11-20T23:08:56.988Z,101091.09
2022-11-20T23:11:26.785Z,101074.84
2022-11-20T23:14:03.252Z,101094.91
2022-11-20T23:16:31.547Z,101090.47
2022-11-20T23:19:00.809Z,101083.41
2022-11-20T23:21:28.027Z,101080.25
2022-11-20T23:23:56.800Z,101079.22
2022-11-20T23:26:26.625Z,101080.59
2022-11-20T23:28:54.798Z,101088.13
2022-11-20T23:31:21.943Z,101082.59
2022-11-20T23:33:48.864Z,101077.41
2022-11-20T23:36:16.308Z,101072.16
2022-11-20T23:38:43.527Z,101066.53
2022-11-20T23:41:11.465Z,101068.88
2022-11-20T23:43:38.252Z,101065.06
2022-11-20T23:46:05.857Z,101059.13
2022-11-20T23:48:34.914Z,101047.28
2022-11-20T23:51:02.522Z,101038.31
2022-11-20T23:53:30.858Z,101024.06
2022-11-20T23:56:00.861Z,101014.06
2022-11-20T23:58:32.610Z,101002.22
